Time;durP1;ratioP1;P1;durP2;ratioP2;P2;SDS_P1;SDS_P2;PMS_P1;PMS_P2;Temp;Humidity;BMP_temperature;BMP_pressure;BME280_temperature;BME280_humidity;BME280_pressure;Samples;Min_cycle;Max_cycle;Signal;HPM_P1;HPM_P2
2023/09/08 00:04:26;;;;;;;629.17;592.90;;;;;;;19.26;93.62;101601.19;10456575;28;20036;-67
2023/09/08 00:09:27;;;;;;;630.45;593.28;;;;;;;19.23;93.70;101612.66;10457680;28;20045;-67
2023/09/08 00:14:27;;;;;;;620.00;584.47;;;;;;;19.16;93.94;101608.34;10461416;28;20029;-67
2023/09/08 00:19:28;;;;;;;612.28;577.08;;;;;;;19.03;93.91;101607.50;10461807;28;20044;-67
2023/09/08 00:24:28;;;;;;;606.22;571.70;;;;;;;19.03;95.66;101612.16;10459062;28;20060;-67
2023/09/08 00:29:28;;;;;;;599.58;565.30;;;;;;;19.00;97.08;101612.63;10456521;28;20460;-67
2023/09/08 00:34:29;;;;;;;634.20;596.92;;;;;;;18.97;97.53;101604.88;10440471;28;20223;-67
2023/09/08 00:39:29;;;;;;;609.80;575.05;;;;;;;18.89;99.78;101605.19;10455648;28;20045;-67
2023/09/08 00:44:30;;;;;;;631.50;594.80;;;;;;;18.86;99.62;101613.91;10455293;28;20502;-67
2023/09/08 00:49:30;;;;;;;657.25;618.42;;;;;;;18.89;100.00;101610.69;10458366;28;20053;-66
2023/09/08 00:54:30;;;;;;;633.00;595.38;;;;;;;18.86;100.00;101611.16;10439699;28;20391;-67
2023/09/08 00:59:32;;;;;;;629.85;593.10;;;;;;;18.86;100.00;101616.63;10466798;28;20150;-67
2023/09/08 01:04:33;;;;;;;604.95;570.15;;;;;;;18.80;99.71;101612.97;10442322;28;20400;-68
2023/09/08 01:09:33;;;;;;;663.92;624.25;;;;;;;18.84;100.00;101610.56;10459462;28;20037;-68
2023/09/08 01:14:34;;;;;;;673.03;632.80;;;;;;;18.80;99.70;101613.78;10454784;28;20029;-68
2023/09/08 01:19:34;;;;;;;684.13;643.08;;;;;;;18.76;99.61;101617.22;10456367;28;20033;-66
2023/09/08 01:25:04;;;;;;;653.50;614.92;;;;;;;18.70;100.00;101618.16;10453693;28;20388;-67
2023/09/08 01:30:05;;;;;;;671.92;631.55;;;;;;;18.68;100.00;101609.31;10454327;28;20025;-68
2023/09/08 01:35:06;;;;;;;673.45;633.10;;;;;;;18.75;100.00;101605.41;10454060;28;20072;-67
2023/09/08 01:40:07;;;;;;;677.83;637.08;;;;;;;18.78;100.00;101606.84;10437047;28;20029;-67
2023/09/08 01:45:08;;;;;;;674.83;634.08;;;;;;;18.73;100.00;101593.00;10436477;28;20048;-68
2023/09/08 01:50:09;;;;;;;693.40;651.65;;;;;;;18.75;100.00;101604.56;10455429;28;20025;-67
2023/09/08 01:55:11;;;;;;;685.72;644.30;;;;;;;18.71;100.00;101590.47;10453935;28;20108;-67
2023/09/08 02:00:12;;;;;;;686.92;645.58;;;;;;;18.73;100.00;101587.50;10454582;28;20040;-66
2023/09/08 02:05:13;;;;;;;684.42;643.25;;;;;;;18.72;100.00;101594.91;10453226;28;20072;-68
2023/09/08 02:10:13;;;;;;;669.15;629.55;;;;;;;18.67;100.00;101594.75;10454363;28;20040;-67
2023/09/08 02:15:14;;;;;;;680.65;640.35;;;;;;;18.62;100.00;101591.03;10455790;28;20479;-67
2023/09/08 02:20:14;;;;;;;679.65;639.42;;;;;;;18.55;100.00;101591.97;10478540;28;20079;-67
2023/09/08 02:25:14;;;;;;;687.78;646.78;;;;;;;18.53;100.00;101591.34;10460548;28;20101;-66
2023/09/08 02:30:15;;;;;;;663.85;624.35;;;;;;;18.45;100.00;101585.38;10461144;28;20111;-66
2023/09/08 02:35:15;;;;;;;667.65;627.97;;;;;;;18.41;100.00;101589.66;10461790;28;20055;-66
2023/09/08 02:40:16;;;;;;;679.28;638.80;;;;;;;18.33;100.00;101588.06;10442914;28;20117;-67
2023/09/08 02:45:16;;;;;;;667.92;628.80;;;;;;;18.27;100.00;101587.09;10461577;28;20106;-67
2023/09/08 02:50:17;;;;;;;676.03;635.85;;;;;;;18.20;100.00;101582.78;10460766;28;20052;-67
2023/09/08 02:55:18;;;;;;;682.17;641.83;;;;;;;18.10;100.00;101577.84;10461428;28;20056;-67
2023/09/08 03:00:18;;;;;;;681.47;640.53;;;;;;;18.04;100.00;101585.09;10460869;28;20037;-66
2023/09/08 03:05:18;;;;;;;692.60;651.20;;;;;;;17.99;100.00;101579.44;10442514;28;20033;-68
2023/09/08 03:10:19;;;;;;;678.05;637.70;;;;;;;17.94;100.00;101589.44;10459425;28;20357;-67
2023/09/08 03:15:20;;;;;;;692.17;650.20;;;;;;;17.91;100.00;101584.44;10460016;28;20037;-68
2023/09/08 03:20:21;;;;;;;673.90;633.50;;;;;;;17.92;100.00;101580.59;10458593;28;20090;-68
2023/09/08 03:25:21;;;;;;;681.53;641.58;;;;;;;17.92;100.00;101577.88;10457981;28;20538;-66
2023/09/08 03:30:21;;;;;;;667.92;628.92;;;;;;;17.86;100.00;101576.88;10458730;28;20045;-66
2023/09/08 03:35:22;;;;;;;687.00;646.10;;;;;;;17.87;100.00;101573.09;10443440;28;20200;-67
2023/09/08 03:40:22;;;;;;;687.75;646.78;;;;;;;17.93;100.00;101565.81;10459171;28;20072;-67
2023/09/08 03:45:23;;;;;;;697.28;655.30;;;;;;;17.93;100.00;101561.19;10461135;28;20052;-67
2023/09/08 03:50:23;;;;;;;666.30;626.72;;;;;;;17.85;100.00;101556.88;10461219;28;20119;-68
2023/09/08 03:55:24;;;;;;;684.00;642.92;;;;;;;17.85;100.00;101556.88;10459040;28;20376;-66
2023/09/08 04:00:24;;;;;;;699.15;656.75;;;;;;;17.85;100.00;101562.34;10458431;28;20069;-69
2023/09/08 04:05:25;;;;;;;654.20;615.63;;;;;;;17.87;100.00;101570.34;10458185;28;20063;-66
2023/09/08 04:10:25;;;;;;;664.40;625.30;;;;;;;17.85;100.00;101575.22;10458837;28;20036;-67
2023/09/08 04:15:26;;;;;;;676.38;636.83;;;;;;;17.85;100.00;101576.03;10459585;28;20368;-68
2023/09/08 04:20:27;;;;;;;666.72;627.08;;;;;;;17.82;100.00;101571.03;10473315;28;20121;-67
2023/09/08 04:25:27;;;;;;;639.50;602.80;;;;;;;17.83;100.00;101566.38;10439084;28;20091;-66
2023/09/08 04:30:28;;;;;;;647.58;610.38;;;;;;;17.76;100.00;101566.44;10458630;28;20037;-67
2023/09/08 04:35:28;;;;;;;652.35;613.47;;;;;;;17.84;100.00;101566.16;10457072;28;20165;-68
2023/09/08 04:40:28;;;;;;;635.17;597.78;;;;;;;17.87;100.00;101573.09;10456893;28;20349;-67
2023/09/08 04:45:29;;;;;;;629.25;593.42;;;;;;;17.86;100.00;101591.41;10456527;28;20056;-66
2023/09/08 04:50:29;;;;;;;614.00;579.78;;;;;;;17.74;100.00;101590.50;10455420;28;20033;-67
2023/09/08 04:55:30;;;;;;;627.97;591.15;;;;;;;17.65;100.00;101580.91;10438352;28;20153;-68
2023/09/08 05:00:30;;;;;;;629.10;593.22;;;;;;;17.60;100.00;101578.81;10455134;28;20503;-66
2023/09/08 05:05:31;;;;;;;646.40;608.58;;;;;;;17.60;100.00;101589.78;10453995;28;20139;-68
2023/09/08 05:10:31;;;;;;;658.53;620.28;;;;;;;17.60;100.00;101581.56;10454808;28;20069;-67
2023/09/08 05:15:32;;;;;;;642.90;606.00;;;;;;;17.69;100.00;101582.09;10455327;28;20078;-69
2023/09/08 05:20:32;;;;;;;656.03;617.65;;;;;;;17.74;100.00;101589.63;10437514;28;20040;-66
2023/09/08 05:25:32;;;;;;;657.13;618.70;;;;;;;17.83;100.00;101586.38;10455186;28;20126;-67
2023/09/08 05:30:33;;;;;;;609.03;575.00;;;;;;;17.94;100.00;101589.44;10453933;28;20029;-66
2023/09/08 05:35:34;;;;;;;600.88;567.42;;;;;;;17.99;100.00;101584.09;10436953;28;20033;-68
2023/09/08 05:40:34;;;;;;;568.85;537.67;;;;;;;18.07;100.00;101592.00;10453368;28;20111;-66
2023/09/08 05:45:35;;;;;;;546.80;517.05;;;;;;;18.20;100.00;101597.31;10419818;28;20053;-67
2023/09/08 05:50:36;;;;;;;470.95;446.52;;;;;;;18.33;100.00;101610.84;10455225;28;20352;-67
2023/09/08 05:55:36;;;;;;;429.23;407.27;;;;;;;18.47;100.00;101594.19;10455327;28;20448;-67
2023/09/08 06:00:37;;;;;;;363.85;345.08;;;;;;;18.72;100.00;101600.38;10458611;28;20036;-67
2023/09/08 06:05:37;;;;;;;283.55;268.70;;;;;;;20.00;100.00;101614.38;10442738;28;20025;-67
2023/09/08 06:10:38;;;;;;;100.20;93.40;;;;;;;21.05;100.00;101609.50;10459107;28;20024;-67
2023/09/08 06:15:38;;;;;;;108.88;101.57;;;;;;;21.79;100.00;101614.75;10458003;28;20025;-67
2023/09/08 06:20:46;;;;;;;239.75;226.57;;;;;;;22.37;100.00;101605.03;10457560;28;20029;-66
2023/09/08 06:25:46;;;;;;;353.02;336.23;;;;;;;22.94;100.00;101607.28;10457029;28;20403;-68
2023/09/08 06:30:47;;;;;;;466.75;442.25;;;;;;;23.47;100.00;101614.84;10454635;28;20040;-67
2023/09/08 06:35:47;;;;;;;534.28;505.80;;;;;;;24.13;100.00;101609.69;10453625;28;20059;-68
2023/09/08 06:40:49;;;;;;;605.10;570.08;;;;;;;24.77;100.00;101603.75;10454379;28;20112;-67
2023/09/08 06:45:50;;;;;;;630.40;594.60;;;;;;;25.17;100.00;101615.97;10436227;28;20077;-67
2023/09/08 06:50:54;;;;;;;636.95;600.67;;;;;;;25.79;100.00;101613.09;10456102;28;20109;-66
2023/09/08 06:55:54;;;;;;;649.20;611.42;;;;;;;26.44;96.22;101613.91;10455171;28;20502;-67
2023/09/08 07:00:55;;;;;;;633.53;597.42;;;;;;;26.85;92.49;101613.69;10452816;28;20029;-67
2023/09/08 07:05:55;;;;;;;646.75;609.95;;;;;;;27.11;88.41;101614.28;10459772;28;20068;-67
2023/09/08 07:10:55;;;;;;;644.20;607.95;;;;;;;27.20;81.90;101614.53;10460626;28;20033;-68
2023/09/08 07:15:56;;;;;;;647.80;611.38;;;;;;;27.42;84.44;101609.28;10476453;28;20021;-67
2023/09/08 07:20:56;;;;;;;644.78;608.05;;;;;;;27.86;82.34;101616.63;10459935;28;20319;-67
2023/09/08 07:25:57;;;;;;;638.97;602.83;;;;;;;28.12;77.17;101619.91;10476484;28;20061;-67
2023/09/08 07:31:04;;;;;;;639.47;603.67;;;;;;;28.44;77.58;101622.00;10460502;28;20148;-67
2023/09/08 07:36:05;;;;;;;629.75;595.03;;;;;;;29.02;77.76;101622.81;10459443;28;20468;-67
2023/09/08 07:41:06;;;;;;;628.95;593.97;;;;;;;29.54;77.22;101626.34;10459153;28;20350;-67
2023/09/08 07:46:07;;;;;;;628.97;593.60;;;;;;;29.88;74.65;101617.59;10459671;28;20025;-67
2023/09/08 07:51:07;;;;;;;627.88;592.90;;;;;;;30.10;71.75;101617.69;10458044;28;20108;-67
2023/09/08 07:56:07;;;;;;;641.30;605.30;;;;;;;30.57;71.35;101611.94;10458918;28;20033;-67
2023/09/08 08:01:08;;;;;;;646.53;610.25;;;;;;;30.82;63.79;101618.88;10458634;28;20045;-68
2023/09/08 08:06:08;;;;;;;644.60;608.30;;;;;;;31.01;67.18;101621.47;10458383;28;20119;-67
2023/09/08 08:11:12;;;;;;;634.83;599.78;;;;;;;31.60;68.81;101619.38;10457222;28;20478;-67
2023/09/08 08:16:14;;;;;;;631.30;596.83;;;;;;;32.37;69.06;101625.56;10440205;28;20037;-68
2023/09/08 08:21:14;;;;;;;626.20;591.30;;;;;;;32.73;69.18;101618.81;10439554;28;20033;-68
2023/09/08 08:26:16;;;;;;;631.28;597.00;;;;;;;33.20;67.01;101618.97;10457986;28;20025;-68
2023/09/08 08:31:16;;;;;;;651.92;615.28;;;;;;;33.49;67.09;101615.38;10456243;28;20117;-67
2023/09/08 08:36:16;;;;;;;636.70;601.92;;;;;;;34.02;64.57;101620.47;10457660;28;20349;-67
2023/09/08 08:41:17;;;;;;;636.47;601.97;;;;;;;34.16;64.17;101625.03;10457487;28;20075;-68
2023/09/08 08:46:17;;;;;;;664.55;627.03;;;;;;;34.26;61.95;101614.19;10439068;28;20063;-68
2023/09/08 08:51:18;;;;;;;638.35;603.47;;;;;;;34.76;62.64;101618.13;10455828;28;20072;-67
2023/09/08 08:56:18;;;;;;;664.60;627.33;;;;;;;35.12;61.40;101623.09;10456888;28;20488;-68
2023/09/08 09:01:19;;;;;;;676.67;638.30;;;;;;;35.16;54.38;101621.25;10455814;28;20037;-67
2023/09/08 09:06:20;;;;;;;660.03;622.97;;;;;;;34.86;58.65;101616.88;10454130;28;20029;-68
2023/09/08 09:11:20;;;;;;;647.03;611.58;;;;;;;35.08;56.03;101626.97;10438493;28;20075;-68
2023/09/08 09:16:21;;;;;;;638.85;604.05;;;;;;;35.59;55.52;101619.09;10454051;28;20042;-68
2023/09/08 09:21:21;;;;;;;619.33;586.53;;;;;;;35.55;53.03;101619.00;10454352;28;20068;-68
2023/09/08 09:26:25;;;;;;;614.58;582.03;;;;;;;35.83;52.23;101626.72;10454258;28;20166;-67
2023/09/08 09:31:26;;;;;;;618.25;585.72;;;;;;;35.83;51.28;101624.75;10454717;28;20100;-67
2023/09/08 09:36:26;;;;;;;616.85;583.63;;;;;;;36.16;52.14;101615.34;10437410;28;20449;-68
2023/09/08 09:41:30;;;;;;;603.00;570.70;;;;;;;36.50;50.54;101613.97;10469827;28;20250;-67
2023/09/08 09:46:30;;;;;;;600.88;569.40;;;;;;;36.65;49.76;101614.41;10452960;28;20025;-69
2023/09/08 09:51:31;;;;;;;609.03;577.23;;;;;;;36.67;49.98;101612.88;10437440;28;20040;-67
2023/09/08 09:56:32;;;;;;;632.20;598.85;;;;;;;36.61;46.00;101602.22;10453226;28;20277;-68
2023/09/08 10:01:32;;;;;;;635.63;601.60;;;;;;;36.69;47.77;101602.03;10453041;28;20040;-68
2023/09/08 10:06:35;;;;;;;663.28;625.65;;;;;;;36.80;46.28;101607.19;10453301;28;20456;-68
2023/09/08 10:11:41;;;;;;;699.00;659.03;;;;;;;36.73;46.76;101607.81;10436173;28;20050;-68
2023/09/08 10:16:43;;;;;;;714.88;672.40;;;;;;;37.03;46.66;101605.44;10437229;28;20056;-69
2023/09/08 10:21:47;;;;;;;722.78;680.17;;;;;;;37.31;46.97;101602.56;10453711;28;20032;-68
2023/09/08 10:27:08;;;;;;;688.20;648.55;;;;;;;37.32;46.05;101606.22;10436759;28;20156;-68
2023/09/08 10:32:09;;;;;;;695.08;654.83;;;;;;;36.84;46.25;101619.41;10453735;28;20104;-69
2023/09/08 10:37:21;;;;;;;706.42;665.22;;;;;;;37.17;44.86;101605.81;10455928;28;20104;-69
2023/09/08 10:42:26;;;;;;;726.90;683.65;;;;;;;36.81;41.21;101603.19;10460855;28;20032;-68
2023/09/08 10:47:36;;;;;;;;;;;;;;;36.33;38.93;101602.97;10461987;28;20047;-68
2023/09/08 10:52:37;;;;;;;749.17;703.85;;;;;;;36.48;42.94;101598.59;10462192;28;19971;-67
2023/09/08 10:57:37;;;;;;;715.13;673.60;;;;;;;36.57;42.90;101602.13;10461484;28;20067;-68
2023/09/08 11:02:41;;;;;;;714.07;672.20;;;;;;;37.19;42.74;101611.94;10476305;28;20479;-68
2023/09/08 11:07:43;;;;;;;685.80;647.07;;;;;;;37.36;42.21;101612.75;10459973;28;20341;-68
2023/09/08 11:12:43;;;;;;;674.67;636.88;;;;;;;37.80;41.71;101604.22;10458870;28;20484;-68
2023/09/08 11:17:44;;;;;;;622.87;590.03;;;;;;;37.65;41.52;101620.84;10459144;28;20032;-69
2023/09/08 11:22:46;;;;;;;603.00;571.50;;;;;;;37.93;42.25;101614.25;10459083;28;20275;-68
2023/09/08 11:27:46;;;;;;;705.83;665.08;;;;;;;37.30;37.58;101600.09;10459268;28;20356;-70
2023/09/08 11:32:47;;;;;;;661.30;624.13;;;;;;;36.80;40.15;101605.19;10459235;28;20024;-68
2023/09/08 11:37:49;;;;;;;681.63;643.03;;;;;;;37.16;39.09;101609.84;10459270;28;20099;-69
2023/09/08 11:42:49;;;;;;;660.45;623.40;;;;;;;37.04;40.33;101601.44;10459113;28;20285;-69
2023/09/08 11:47:50;;;;;;;668.17;630.42;;;;;;;37.28;40.37;101602.47;10457020;28;20049;-69
2023/09/08 11:52:52;;;;;;;678.30;639.80;;;;;;;37.55;40.25;101587.44;10459095;28;20051;-68
2023/09/08 11:58:00;;;;;;;668.30;630.83;;;;;;;37.85;39.42;101593.44;10458274;28;20037;-68
2023/09/08 12:03:11;;;;;;;666.13;628.95;;;;;;;37.76;38.42;101592.00;10442578;28;20070;-69
2023/09/08 12:08:12;;;;;;;712.90;671.42;;;;;;;37.92;39.07;101590.00;10441482;28;20059;-69
2023/09/08 12:13:14;;;;;;;695.45;655.55;;;;;;;37.64;38.61;101585.25;10442361;28;20110;-70
2023/09/08 12:18:15;;;;;;;677.83;639.72;;;;;;;37.45;38.40;101593.66;10459985;28;20025;-69
2023/09/08 12:23:19;;;;;;;708.35;666.92;;;;;;;37.74;39.24;101588.72;10458623;28;20029;-69
2023/09/08 12:28:20;;;;;;;683.63;644.83;;;;;;;37.95;39.95;101589.25;10458164;28;20342;-70
2023/09/08 12:33:21;;;;;;;695.22;655.13;;;;;;;37.88;38.39;101591.91;10474741;28;20044;-69
2023/09/08 12:38:23;;;;;;;724.97;681.42;;;;;;;37.79;39.11;101586.44;10440652;28;20029;-68
2023/09/08 12:43:23;;;;;;;685.13;646.55;;;;;;;37.40;37.64;101579.78;10456373;28;20076;-69
2023/09/08 12:48:24;;;;;;;679.33;640.95;;;;;;;37.68;37.20;101576.88;10457597;28;20163;-69
2023/09/08 12:53:24;;;;;;;705.30;664.25;;;;;;;37.75;36.94;101573.38;10454765;28;20127;-69
2023/09/08 12:58:25;;;;;;;701.23;660.63;;;;;;;37.64;37.95;101576.78;10455667;28;20037;-68
2023/09/08 13:03:25;;;;;;;687.35;648.25;;;;;;;38.10;38.34;101562.94;10455992;28;20309;-70
2023/09/08 13:08:25;;;;;;;721.43;679.23;;;;;;;38.06;39.42;101564.84;10456114;28;20037;-68
2023/09/08 13:13:27;;;;;;;701.78;661.47;;;;;;;37.98;39.51;101562.25;10455721;28;20262;-68
2023/09/08 13:18:28;;;;;;;692.85;652.53;;;;;;;38.02;38.65;101566.78;10456048;28;20052;-69
2023/09/08 13:23:28;;;;;;;691.55;651.88;;;;;;;37.75;37.28;101573.38;10455672;28;20037;-67
2023/09/08 13:28:29;;;;;;;690.38;651.00;;;;;;;37.52;37.50;101556.28;10457144;28;20043;-68
2023/09/08 13:33:29;;;;;;;682.40;643.65;;;;;;;37.51;38.55;101558.28;10454130;28;20419;-67
2023/09/08 13:38:29;;;;;;;715.83;673.72;;;;;;;37.59;39.61;101553.63;10455695;28;20127;-69
2023/09/08 13:43:30;;;;;;;708.60;667.75;;;;;;;37.38;38.52;101554.72;10455312;28;20483;-68
2023/09/08 13:48:30;;;;;;;684.35;645.47;;;;;;;36.74;37.81;101548.16;10453882;28;20056;-68
2023/09/08 13:53:31;;;;;;;693.72;654.30;;;;;;;36.53;36.41;101534.28;10455712;28;20124;-68
2023/09/08 13:58:31;;;;;;;690.45;650.92;;;;;;;36.25;37.06;101539.91;10456314;28;20029;-68
2023/09/08 14:03:32;;;;;;;685.53;646.92;;;;;;;36.03;37.98;101529.16;10455561;28;20029;-68
2023/09/08 14:08:32;;;;;;;697.08;657.47;;;;;;;36.01;38.91;101537.09;10453998;28;20127;-68
2023/09/08 14:13:32;;;;;;;679.78;641.65;;;;;;;36.06;39.14;101534.91;10452654;28;20064;-67
2023/09/08 14:18:33;;;;;;;695.90;654.85;;;;;;;35.85;39.58;101531.38;10437784;28;20033;-69
2023/09/08 14:23:34;;;;;;;684.47;645.80;;;;;;;34.85;39.50;101531.63;10453822;28;20083;-68
2023/09/08 14:28:34;;;;;;;679.40;641.03;;;;;;;34.78;40.46;101531.41;10452984;28;20044;-67
2023/09/08 14:33:36;;;;;;;800.33;748.13;;;;;;;34.03;40.16;101520.13;10437494;28;20067;-68
2023/09/08 14:38:37;;;;;;;697.42;657.90;;;;;;;33.90;42.01;101519.19;10454322;28;20029;-69
2023/09/08 14:43:37;;;;;;;691.50;651.72;;;;;;;34.17;41.75;101519.84;10453189;28;20040;-68
2023/09/08 14:48:38;;;;;;;700.33;660.00;;;;;;;34.34;42.85;101513.28;10454464;28;20048;-70
2023/09/08 14:53:38;;;;;;;696.53;657.03;;;;;;;33.56;43.60;101517.44;10453544;28;20090;-67
2023/09/08 14:58:39;;;;;;;694.67;654.88;;;;;;;32.92;44.20;101514.69;10451793;28;20587;-67
2023/09/08 15:03:39;;;;;;;712.60;671.30;;;;;;;32.10;44.12;101518.22;10452541;28;20033;-69
2023/09/08 15:08:42;;;;;;;710.10;669.15;;;;;;;31.66;44.91;101516.47;10452250;28;20411;-68
2023/09/08 15:13:43;;;;;;;661.28;624.47;;;;;;;31.37;45.51;101509.47;10452107;28;20044;-68
2023/09/08 15:18:43;;;;;;;772.20;724.45;;;;;;;31.19;45.42;101507.72;10453695;28;20116;-67
2023/09/08 15:23:45;;;;;;;724.75;681.83;;;;;;;30.84;46.88;101515.94;10456044;28;20029;-68
2023/09/08 15:28:45;;;;;;;753.78;707.78;;;;;;;30.64;47.11;101514.47;10461194;28;20068;-67
2023/09/08 15:33:45;;;;;;;673.17;635.33;;;;;;;30.45;47.94;101514.66;10460027;28;20067;-67
2023/09/08 15:38:46;;;;;;;642.50;607.42;;;;;;;30.33;47.75;101515.22;10440901;28;20086;-66
2023/09/08 15:43:49;;;;;;;655.83;619.90;;;;;;;30.15;48.03;101510.59;10458034;28;20436;-67
2023/09/08 15:48:50;;;;;;;672.55;634.65;;;;;;;29.92;48.52;101514.47;10459320;28;20318;-67
2023/09/08 15:53:51;;;;;;;664.42;626.78;;;;;;;29.58;49.47;101513.78;10440933;28;20025;-68
2023/09/08 15:58:51;;;;;;;684.88;645.40;;;;;;;29.20;50.41;101514.00;10459337;28;20036;-68
2023/09/08 16:03:51;;;;;;;701.10;659.90;;;;;;;28.96;51.83;101519.69;10458944;28;20131;-67
2023/09/08 16:08:52;;;;;;;686.08;646.05;;;;;;;28.74;51.80;101528.72;10459268;28;20461;-68
2023/09/08 16:13:52;;;;;;;670.95;631.15;;;;;;;28.50;53.26;101530.81;10458526;28;20360;-68
2023/09/08 16:18:53;;;;;;;665.67;627.20;;;;;;;28.24;54.19;101527.59;10458989;28;20032;-69
2023/09/08 16:23:53;;;;;;;663.58;625.22;;;;;;;28.11;54.19;101525.53;10456169;28;20460;-68
2023/09/08 16:28:54;;;;;;;665.58;627.30;;;;;;;27.94;54.07;101523.28;10439853;28;20033;-68
2023/09/08 16:33:55;;;;;;;663.45;625.72;;;;;;;27.71;55.31;101519.38;10456104;28;20079;-67
2023/09/08 16:38:56;;;;;;;661.30;623.53;;;;;;;27.53;55.79;101527.38;10423640;28;20470;-68
2023/09/08 16:43:56;;;;;;;655.80;618.10;;;;;;;27.33;57.41;101522.06;10456821;28;20025;-67
2023/09/08 16:48:56;;;;;;;651.13;614.00;;;;;;;27.20;56.81;101525.53;10439692;28;20053;-68
2023/09/08 16:53:57;;;;;;;645.60;609.30;;;;;;;27.05;56.71;101521.75;10456081;28;20120;-67
2023/09/08 16:58:57;;;;;;;647.22;610.60;;;;;;;26.86;57.07;101518.06;10455069;28;20048;-67
2023/09/08 17:03:58;;;;;;;639.20;602.78;;;;;;;26.65;57.18;101528.53;10454081;28;20040;-69
2023/09/08 17:08:58;;;;;;;633.75;598.17;;;;;;;26.47;57.86;101526.44;10454396;28;20115;-68
2023/09/08 17:13:58;;;;;;;637.20;600.83;;;;;;;26.32;58.62;101524.56;10454525;28;20029;-68
2023/09/08 17:18:59;;;;;;;622.67;587.85;;;;;;;26.16;59.43;101523.84;10454376;28;20426;-66
2023/09/08 17:23:59;;;;;;;601.88;566.88;;;;;;;26.00;59.52;101527.84;10455828;28;20025;-67
2023/09/08 17:29:00;;;;;;;596.55;563.63;;;;;;;25.81;59.69;101516.56;10454482;28;20044;-68
2023/09/08 17:34:00;;;;;;;551.03;522.13;;;;;;;25.64;60.85;101520.50;10456183;28;20360;-68
2023/09/08 17:39:00;;;;;;;500.75;475.67;;;;;;;25.44;60.63;101529.72;10470517;28;20457;-68
2023/09/08 17:44:01;;;;;;;473.98;451.08;;;;;;;25.28;60.50;101531.72;10436964;28;20530;-68
2023/09/08 17:49:01;;;;;;;440.65;419.13;;;;;;;25.11;60.49;101525.63;10454306;28;20079;-68
2023/09/08 17:54:02;;;;;;;418.05;398.80;;;;;;;24.98;60.41;101537.25;10456427;28;20112;-68
2023/09/08 17:59:02;;;;;;;392.98;374.02;;;;;;;24.85;59.96;101538.66;10454324;28;20340;-68
2023/09/08 18:04:03;;;;;;;372.17;355.50;;;;;;;24.73;59.71;101549.19;10454491;28;20536;-68
2023/09/08 18:09:03;;;;;;;406.55;387.70;;;;;;;24.57;59.71;101554.75;10454441;28;20031;-67
2023/09/08 18:14:04;;;;;;;370.42;354.02;;;;;;;24.44;60.72;101555.28;10469017;28;20025;-68
2023/09/08 18:19:05;;;;;;;372.15;355.40;;;;;;;24.34;61.32;101557.97;10453514;28;20033;-67
2023/09/08 18:24:05;;;;;;;343.83;328.60;;;;;;;24.23;62.59;101564.63;10453296;28;20025;-68
2023/09/08 18:29:06;;;;;;;326.20;312.10;;;;;;;24.13;63.29;101559.88;10453883;28;20052;-68
2023/09/08 18:34:06;;;;;;;279.65;267.30;;;;;;;24.02;63.13;101570.06;10452397;28;20052;-68
2023/09/08 18:39:07;;;;;;;242.30;230.20;;;;;;;23.86;63.47;101582.19;10452109;28;20060;-64
2023/09/08 18:44:07;;;;;;;211.73;202.20;;;;;;;23.68;63.34;101583.47;10468785;28;20021;-64
2023/09/08 18:49:08;;;;;;;171.20;163.60;;;;;;;23.54;63.73;101585.03;10435999;28;20080;-63
2023/09/08 18:54:08;;;;;;;113.55;107.80;;;;;;;23.42;64.46;101585.22;10452874;28;20373;-63
2023/09/08 18:59:09;;;;;;;121.97;115.88;;;;;;;23.30;65.07;101585.44;10458072;28;20106;-64
2023/09/08 19:04:10;;;;;;;223.98;211.98;;;;;;;23.19;65.72;101590.06;10460486;28;20071;-63
2023/09/08 19:09:10;;;;;;;164.77;156.27;;;;;;;23.11;65.99;101600.78;10459895;28;20119;-63
2023/09/08 19:14:10;;;;;;;109.82;104.03;;;;;;;23.01;67.13;101586.91;10461914;28;20516;-63
2023/09/08 19:19:11;;;;;;;175.23;165.25;;;;;;;22.94;67.71;101606.44;10460471;28;20041;-64
2023/09/08 19:24:12;;;;;;;191.23;180.32;;;;;;;22.85;68.75;101596.97;10461069;28;20055;-64
2023/09/08 19:29:12;;;;;;;203.10;191.82;;;;;;;22.79;69.50;101598.00;10459687;28;20166;-64
2023/09/08 19:34:12;;;;;;;206.95;195.52;;;;;;;22.71;71.29;101594.59;10460563;28;20479;-68
2023/09/08 19:39:13;;;;;;;203.13;190.15;;;;;;;22.66;72.37;101602.84;10459122;28;20049;-66
2023/09/08 19:44:13;;;;;;;174.75;162.65;;;;;;;22.59;75.80;101606.91;10459050;28;20060;-67
2023/09/08 19:49:14;;;;;;;168.27;156.23;;;;;;;22.50;75.81;101599.09;10476327;28;20163;-66
2023/09/08 19:54:14;;;;;;;167.65;154.77;;;;;;;22.42;76.92;101604.25;10457692;28;20036;-68
2023/09/08 19:59:18;;;;;;;153.70;142.98;;;;;;;22.32;76.29;101604.97;10457789;28;20036;-66
2023/09/08 20:04:18;;;;;;;155.75;142.57;;;;;;;22.22;77.18;101607.63;10460472;28;20040;-67
2023/09/08 20:09:18;;;;;;;160.68;147.30;;;;;;;22.12;77.81;101596.44;10458075;28;20033;-68
2023/09/08 20:14:19;;;;;;;154.13;141.68;;;;;;;22.00;78.74;101594.66;10457618;28;20064;-66
2023/09/08 20:19:20;;;;;;;155.75;142.52;;;;;;;21.90;78.79;101597.28;10458195;28;20025;-68
2023/09/08 20:24:20;;;;;;;168.15;154.77;;;;;;;21.80;79.14;101600.75;10458866;28;20146;-67
2023/09/08 20:29:21;;;;;;;170.07;155.73;;;;;;;21.71;79.38;101595.94;10459121;28;20061;-67
2023/09/08 20:34:21;;;;;;;178.48;162.95;;;;;;;21.62;80.15;101591.94;10457141;28;20033;-67
2023/09/08 20:39:22;;;;;;;197.98;180.77;;;;;;;21.54;80.80;101596.81;10458424;28;20033;-67
2023/09/08 20:44:22;;;;;;;188.75;170.85;;;;;;;21.51;81.95;101597.31;10456686;28;20112;-68
2023/09/08 20:49:23;;;;;;;206.02;187.65;;;;;;;21.46;82.07;101599.97;10456786;28;20204;-67
2023/09/08 20:54:23;;;;;;;201.25;183.90;;;;;;;21.42;82.78;101600.75;10456783;28;20374;-68
2023/09/08 20:59:24;;;;;;;213.48;194.38;;;;;;;21.39;83.50;101593.81;10455780;28;20112;-67
2023/09/08 21:04:25;;;;;;;210.90;191.13;;;;;;;21.33;83.68;101592.03;10455806;28;20028;-66
2023/09/08 21:09:25;;;;;;;206.70;188.02;;;;;;;21.23;84.53;101584.47;10456854;28;20115;-67
2023/09/08 21:14:25;;;;;;;641.38;597.00;;;;;;;21.21;84.99;101594.88;10455684;28;20029;-67
2023/09/08 21:19:28;;;;;;;222.25;200.75;;;;;;;21.16;85.27;101577.47;10455339;28;20029;-67
2023/09/08 21:24:29;;;;;;;227.10;205.43;;;;;;;21.11;85.83;101583.72;10455380;28;20108;-66
2023/09/08 21:29:29;;;;;;;204.93;185.23;;;;;;;21.06;85.95;101583.66;10455583;28;20033;-66
2023/09/08 21:34:30;;;;;;;256.17;235.13;;;;;;;21.02;86.58;101583.28;10471721;28;20025;-67
2023/09/08 21:39:30;;;;;;;352.17;326.33;;;;;;;20.93;87.07;101579.31;10455259;28;20413;-65
2023/09/08 21:44:31;;;;;;;353.73;328.20;;;;;;;20.93;87.70;101583.97;10454052;28;20079;-66
2023/09/08 21:49:31;;;;;;;381.48;354.38;;;;;;;20.88;88.17;101585.56;10454576;28;20049;-66
2023/09/08 21:54:32;;;;;;;367.10;340.40;;;;;;;20.85;88.40;101588.81;10454906;28;20204;-67
2023/09/08 21:59:32;;;;;;;386.38;360.38;;;;;;;20.78;88.79;101587.31;10455279;28;20353;-66